createdAt,value
2023-04-11T00:02:19.966Z,9.40
2023-04-11T00:07:23.954Z,9.90
2023-04-11T00:12:25.730Z,14.33
2023-04-11T00:17:32.210Z,10.93
2023-04-11T00:22:36.750Z,11.63
2023-04-11T00:27:38.668Z,14.10
2023-04-11T00:32:45.983Z,12.90
2023-04-11T00:37:56.029Z,14.40
2023-04-11T00:42:57.733Z,11.30
2023-04-11T00:47:59.706Z,12.67
2023-04-11T00:53:03.791Z,18.87
2023-04-11T00:58:08.580Z,16.70
2023-04-11T01:03:13.421Z,15.13
2023-04-11T01:08:18.750Z,8.40
2023-04-11T01:13:25.186Z,9.57
2023-04-11T01:18:29.934Z,10.93
2023-04-11T01:23:34.448Z,8.37
2023-04-11T01:28:36.318Z,4.83
2023-04-11T01:33:41.638Z,7.67
2023-04-11T01:38:43.509Z,10.63
2023-04-11T01:43:45.950Z,5.50
2023-04-11T01:48:52.382Z,5.57
2023-04-11T01:53:54.541Z,4.17
2023-04-11T01:59:01.198Z,5.43
2023-04-11T02:04:02.992Z,7.43
2023-04-11T02:09:04.950Z,2.60
2023-04-11T02:14:06.668Z,5.03
2023-04-11T02:19:10.664Z,3.87
2023-04-11T02:24:12.429Z,6.80
2023-04-11T02:29:16.576Z,4.37
2023-04-11T02:34:23.213Z,3.80
2023-04-11T02:39:24.928Z,5.43
2023-04-11T02:44:30.957Z,6.50
2023-04-11T02:49:41.125Z,5.67
2023-04-11T02:54:44.468Z,4.27
2023-04-11T02:59:48.250Z,7.23
2023-04-11T03:04:53.960Z,5.10
2023-04-11T03:09:58.019Z,7.10
2023-04-11T03:15:03.046Z,10.10
2023-04-11T03:20:07.257Z,8.90
2023-04-11T03:25:09.656Z,8.00
2023-04-11T03:30:12.522Z,5.80
2023-04-11T03:35:18.734Z,12.27
2023-04-11T03:40:29.196Z,9.13
2023-04-11T03:45:45.123Z,7.90
2023-04-11T03:50:58.137Z,9.67
2023-04-11T03:56:08.808Z,10.77
2023-04-11T04:01:15.373Z,10.97
2023-04-11T04:06:20.310Z,13.33
2023-04-11T04:11:22.769Z,10.50
2023-04-11T04:16:29.492Z,10.37
2023-04-11T04:21:38.096Z,16.33
2023-04-11T04:26:42.366Z,12.70
2023-04-11T04:31:59.954Z,13.07
2023-04-11T04:37:21.461Z,17.93
2023-04-11T04:42:28.087Z,9.33
2023-04-11T04:47:37.507Z,6.73
2023-04-11T04:52:39.375Z,1.73
2023-04-11T04:57:42.794Z,5.30
2023-04-11T05:02:44.676Z,8.70
2023-04-11T05:07:48.416Z,4.27
2023-04-11T05:12:55.066Z,6.30
2023-04-11T05:17:59.475Z,7.10
2023-04-11T05:23:01.642Z,3.20
2023-04-11T05:28:06.644Z,8.47
2023-04-11T05:33:15.393Z,8.27
2023-04-11T05:38:21.406Z,11.23
2023-04-11T05:43:25.684Z,4.97
2023-04-11T05:48:29.943Z,9.57
2023-04-11T05:53:32.130Z,10.60
2023-04-11T05:58:34.664Z,12.90
2023-04-11T06:03:36.500Z,8.93
2023-04-11T06:08:38.664Z,13.47
2023-04-11T06:13:42.571Z,7.87
2023-04-11T06:18:46.662Z,5.47
2023-04-11T06:23:53.914Z,12.80
2023-04-11T06:28:56.023Z,9.93
2023-04-11T06:34:02.974Z,15.83
2023-04-11T06:39:07.256Z,14.27
2023-04-11T06:44:09.114Z,16.80
2023-04-11T06:49:11.905Z,15.80
2023-04-11T06:54:13.778Z,19.50
2023-04-11T06:59:21.815Z,18.53
2023-04-11T07:04:24.072Z,17.87
2023-04-11T07:09:28.283Z,14.30
2023-04-11T07:14:32.478Z,19.00
2023-04-11T07:19:34.270Z,12.77
2023-04-11T07:24:36.275Z,12.57
2023-04-11T07:29:38.059Z,10.57
2023-04-11T07:34:44.386Z,15.32
2023-04-11T07:39:46.309Z,12.60
2023-04-11T07:44:47.980Z,6.03
2023-04-11T07:49:50.223Z,6.63
2023-04-11T07:54:52.217Z,6.03
2023-04-11T07:59:56.976Z,0.97
2023-04-11T08:04:58.718Z,3.37
2023-04-11T08:10:03.058Z,5.03
2023-04-11T08:15:05.391Z,3.97
2023-04-11T08:20:14.076Z,5.70
2023-04-11T08:25:22.625Z,3.70
2023-04-11T08:30:25.074Z,9.60
2023-04-11T08:35:26.873Z,6.83
2023-04-11T08:40:28.675Z,5.80
2023-04-11T08:45:30.592Z,5.87
2023-04-11T08:50:35.156Z,3.17
2023-04-11T08:55:47.768Z,1.43
2023-04-11T09:00:54.086Z,3.33
2023-04-11T09:05:59.211Z,6.90
2023-04-11T09:11:03.921Z,4.73
2023-04-11T09:16:12.728Z,3.07
2023-04-11T09:21:15.759Z,2.40
2023-04-11T09:26:29.306Z,3.83
2023-04-11T09:31:48.621Z,8.40
2023-04-11T09:36:57.459Z,5.60
2023-04-11T09:41:59.279Z,5.63
2023-04-11T09:47:03.325Z,6.93
2023-04-11T09:52:05.401Z,5.03
2023-04-11T09:57:07.701Z,7.33
2023-04-11T10:02:14.197Z,7.17
2023-04-11T10:07:18.521Z,7.47
2023-04-11T10:12:32.546Z,6.00
2023-04-11T10:17:34.366Z,7.43
2023-04-11T10:22:44.390Z,6.40
2023-04-11T10:27:47.918Z,11.33
2023-04-11T10:33:12.159Z,16.37
2023-04-11T10:38:47.881Z,9.67
2023-04-11T10:43:52.041Z,12.20
2023-04-11T10:49:03.658Z,18.70
2023-04-11T10:54:25.018Z,12.63
2023-04-11T10:59:34.201Z,17.00
2023-04-11T11:04:39.300Z,16.17
2023-04-11T11:09:41.497Z,13.03
2023-04-11T11:14:45.136Z,21.50
2023-04-11T11:19:47.989Z,22.13
2023-04-11T11:24:52.666Z,23.23
2023-04-11T11:29:56.872Z,15.90
2023-04-11T11:34:58.925Z,21.20
2023-04-11T11:40:00.829Z,14.70
2023-04-11T11:45:16.131Z,11.70
2023-04-11T11:50:31.510Z,10.40
2023-04-11T11:55:33.438Z,11.00
2023-04-11T12:00:40.525Z,7.40
2023-04-11T12:05:44.720Z,16.07
2023-04-11T12:10:47.308Z,15.90
2023-04-11T12:15:57.223Z,11.60
2023-04-11T12:20:59.174Z,14.65
2023-04-11T12:26:03.599Z,16.30
2023-04-11T12:31:05.449Z,22.23
2023-04-11T12:36:09.749Z,20.97
2023-04-11T12:41:31.604Z,20.70
2023-04-11T12:46:33.978Z,21.00
2023-04-11T12:51:36.153Z,11.30
2023-04-11T12:56:37.896Z,13.03
2023-04-11T13:01:42.113Z,14.60
2023-04-11T13:06:47.567Z,8.77
2023-04-11T13:11:51.625Z,11.67
2023-04-11T13:16:56.093Z,10.50
2023-04-11T13:21:57.902Z,13.57
2023-04-11T13:27:02.029Z,15.50
2023-04-11T13:32:06.495Z,6.47
2023-04-11T13:37:15.751Z,6.90
2023-04-11T13:42:21.893Z,5.43
2023-04-11T13:47:25.907Z,9.63
2023-04-11T13:52:27.613Z,7.55
2023-04-11T13:57:31.856Z,8.80
2023-04-11T14:02:36.136Z,11.57
2023-04-11T14:07:40.404Z,9.48
2023-04-11T14:12:46.966Z,3.75
2023-04-11T14:17:48.664Z,7.47
2023-04-11T14:22:50.896Z,6.90
2023-04-11T14:27:57.377Z,6.82
2023-04-11T14:32:59.188Z,13.50
2023-04-11T14:38:01.857Z,16.43
2023-04-11T14:43:03.713Z,10.30
2023-04-11T14:48:10.131Z,11.15
2023-04-11T14:53:14.241Z,13.83
2023-04-11T14:58:16.868Z,14.50
2023-04-11T15:03:19.160Z,8.83
2023-04-11T15:08:23.371Z,19.80
2023-04-11T15:13:27.322Z,11.63
2023-04-11T15:18:30.770Z,18.33
2023-04-11T15:23:33.396Z,13.20
2023-04-11T15:28:39.376Z,10.88
2023-04-11T15:33:43.461Z,12.98
2023-04-11T15:38:45.662Z,14.02
2023-04-11T15:43:47.558Z,12.80
2023-04-11T15:48:51.555Z,11.90
2023-04-11T15:53:58.318Z,11.20
2023-04-11T15:59:00.234Z,16.15
2023-04-11T16:04:02.939Z,12.77
2023-04-11T16:09:05.302Z,9.85
2023-04-11T16:14:07.075Z,12.15
2023-04-11T16:19:08.767Z,14.15
2023-04-11T16:24:10.466Z,18.20
2023-04-11T16:29:14.705Z,13.45
2023-04-11T16:34:18.928Z,16.23
2023-04-11T16:39:20.662Z,15.75
2023-04-11T16:44:22.942Z,15.68
2023-04-11T16:49:24.751Z,14.85
2023-04-11T16:54:26.692Z,14.25
2023-04-11T16:59:30.946Z,16.17
2023-04-11T17:04:33.021Z,14.25
2023-04-11T17:09:38.562Z,17.40
2023-04-11T17:14:42.487Z,15.98
2023-04-11T17:19:47.044Z,16.33
2023-04-11T17:24:48.852Z,17.60
2023-04-11T17:29:53.110Z,17.33
2023-04-11T17:35:00.871Z,18.00
2023-04-11T17:40:15.306Z,16.73
2023-04-11T17:45:20.183Z,17.73
2023-04-11T17:50:21.959Z,13.60
2023-04-11T17:55:23.829Z,17.10
2023-04-11T18:00:26.586Z,12.37
2023-04-11T18:05:31.531Z,15.03
2023-04-11T18:10:33.807Z,12.83
2023-04-11T18:15:36.045Z,17.97
2023-04-11T18:20:40.976Z,19.73
2023-04-11T18:25:42.913Z,15.53
2023-04-11T18:30:44.650Z,18.13
2023-04-11T18:35:48.897Z,24.33
2023-04-11T18:40:55.134Z,17.00
2023-04-11T18:46:00.848Z,18.10
2023-04-11T18:51:03.681Z,12.90
2023-04-11T18:56:08.402Z,15.73
2023-04-11T19:01:16.426Z,20.03
2023-04-11T19:06:21.777Z,18.47
2023-04-11T19:11:26.242Z,20.40
2023-04-11T19:16:28.093Z,21.73
2023-04-11T19:21:32.078Z,20.87
2023-04-11T19:26:33.991Z,20.30
2023-04-11T19:31:36.157Z,26.07
2023-04-11T19:36:38.235Z,21.40
2023-04-11T19:41:45.123Z,15.40
2023-04-11T19:46:49.156Z,18.53
2023-04-11T19:51:51.350Z,20.20
2023-04-11T19:56:53.529Z,19.13
2023-04-11T20:02:01.475Z,17.93
2023-04-11T20:07:04.237Z,11.88
2023-04-11T20:12:08.290Z,15.83
2023-04-11T20:17:12.260Z,18.57
2023-04-11T20:22:18.437Z,13.63
2023-04-11T20:27:22.445Z,19.30
2023-04-11T20:32:24.736Z,21.63
2023-04-11T20:37:34.435Z,15.47
2023-04-11T20:42:42.033Z,14.83
2023-04-11T20:47:46.135Z,16.87
2023-04-11T20:52:51.390Z,18.07
2023-04-11T20:57:53.312Z,15.17
2023-04-11T21:02:55.278Z,19.73
2023-04-11T21:07:59.286Z,12.40
2023-04-11T21:13:01.081Z,21.93
2023-04-11T21:18:04.206Z,20.07
2023-04-11T21:23:12.066Z,22.50
2023-04-11T21:28:16.088Z,22.63
2023-04-11T21:33:20.343Z,17.47
2023-04-11T21:38:22.110Z,17.67
2023-04-11T21:43:24.411Z,18.40
2023-04-11T21:48:28.502Z,15.00
2023-04-11T21:53:30.331Z,22.97
2023-04-11T21:58:32.048Z,21.97
2023-04-11T22:03:40.225Z,19.27
2023-04-11T22:08:50.205Z,17.30
2023-04-11T22:13:52.727Z,11.80
2023-04-11T22:18:54.474Z,16.03
2023-04-11T22:23:57.254Z,16.93
2023-04-11T22:29:00.463Z,13.50
2023-04-11T22:34:04.671Z,12.30
2023-04-11T22:39:06.995Z,12.93
2023-04-11T22:44:10.821Z,13.07
2023-04-11T22:49:12.687Z,13.30
2023-04-11T22:54:16.681Z,14.53
2023-04-11T22:59:18.335Z,16.33
2023-04-11T23:04:23.381Z,14.00
2023-04-11T23:09:25.416Z,21.00
2023-04-11T23:14:32.036Z,18.13
2023-04-11T23:19:38.229Z,18.40
2023-04-11T23:24:40.089Z,12.13
2023-04-11T23:29:48.870Z,11.73
2023-04-11T23:34:56.094Z,14.43
2023-04-11T23:39:59.269Z,14.93
2023-04-11T23:45:00.945Z,17.97
2023-04-11T23:50:03.748Z,16.00
2023-04-11T23:55:06.203Z,10.23
